Time;durP1;ratioP1;P1;durP2;ratioP2;P2;SDS_P1;SDS_P2;PMS_P1;PMS_P2;Temp;Humidity;BMP_temperature;BMP_pressure;BME280_temperature;BME280_humidity;BME280_pressure;Samples;Min_cycle;Max_cycle;Signal;HPM_P1;HPM_P2
2020/12/13 00:00:07;;;;;;;0.10;0.10;;;8.10;91.20;;;;;;4113823;28;20106;-85
2020/12/13 00:02:08;;;;;;;0.20;0.20;;;8.20;90.90;;;;;;4082222;29;20535;-86
2020/12/13 00:04:10;;;;;;;0.50;0.50;;;8.20;90.70;;;;;;4082289;28;20078;-86
2020/12/13 00:06:12;;;;;;;0.10;0.10;;;8.20;90.50;;;;;;4087956;29;20060;-86
2020/12/13 00:08:13;;;;;;;0.17;0.17;;;8.20;90.70;;;;;;4081545;29;20404;-86
2020/12/13 00:10:14;;;;;;;0.20;0.20;;;8.20;90.80;;;;;;4098563;28;20138;-85
2020/12/13 00:12:16;;;;;;;0.30;0.30;;;8.20;90.80;;;;;;4105850;28;20126;-84
2020/12/13 00:14:17;;;;;;;0.10;0.10;;;8.20;90.60;;;;;;4113333;28;20055;-85
2020/12/13 00:16:18;;;;;;;0.47;0.47;;;8.20;90.80;;;;;;4097934;28;20066;-85
2020/12/13 00:18:20;;;;;;;0.28;0.28;;;8.20;91.00;;;;;;4095778;28;20146;-85
2020/12/13 00:20:21;;;;;;;0.25;0.25;;;8.10;91.20;;;;;;4079873;29;20078;-85
2020/12/13 00:22:22;;;;;;;0.85;0.82;;;8.10;91.10;;;;;;4068141;29;20064;-85
2020/12/13 00:24:24;;;;;;;0.30;0.30;;;8.10;91.50;;;;;;4074990;29;20587;-85
2020/12/13 00:26:26;;;;;;;0.35;0.35;;;8.10;91.30;;;;;;4092185;28;20051;-84
2020/12/13 00:28:27;;;;;;;0.20;0.20;;;8.10;91.40;;;;;;4084046;29;20150;-85
2020/12/13 00:30:28;;;;;;;0.20;0.20;;;8.00;91.50;;;;;;4085234;29;20066;-85
2020/12/13 00:32:30;;;;;;;0.28;0.28;;;8.00;91.20;;;;;;4079677;29;20095;-85
2020/12/13 00:34:33;;;;;;;0.20;0.20;;;8.10;91.30;;;;;;4100647;28;20490;-86
2020/12/13 00:36:35;;;;;;;0.20;0.20;;;8.10;91.00;;;;;;4085976;29;20472;-85
2020/12/13 00:38:36;;;;;;;3.63;0.30;;;8.10;90.80;;;;;;4098696;29;20154;-85
2020/12/13 00:40:37;;;;;;;0.52;0.52;;;8.00;91.10;;;;;;4084228;29;20451;-85
2020/12/13 00:42:38;;;;;;;0.20;0.20;;;8.00;90.80;;;;;;4101514;28;20069;-85
2020/12/13 00:44:40;;;;;;;0.20;0.20;;;8.10;91.00;;;;;;4093365;28;20063;-85
2020/12/13 00:46:41;;;;;;;0.20;0.20;;;8.00;91.00;;;;;;4116518;28;20053;-85
2020/12/13 00:48:42;;;;;;;0.20;0.20;;;8.00;91.30;;;;;;4105196;28;20455;-85
2020/12/13 00:50:43;;;;;;;0.20;0.20;;;8.00;91.00;;;;;;4092391;28;20069;-85
2020/12/13 00:52:46;;;;;;;0.20;0.20;;;8.00;91.10;;;;;;4088786;28;20480;-86
2020/12/13 00:54:47;;;;;;;0.38;0.38;;;8.00;91.20;;;;;;4088835;29;20065;-85
2020/12/13 00:56:48;;;;;;;0.30;0.30;;;8.00;91.20;;;;;;4091722;28;20069;-85
2020/12/13 00:58:49;;;;;;;0.20;0.20;;;8.00;91.50;;;;;;4085679;28;20048;-85
2020/12/13 01:00:51;;;;;;;0.20;0.20;;;7.90;91.30;;;;;;4103767;28;20055;-85
2020/12/13 01:03:00;;;;;;;0.93;0.93;;;8.00;91.20;;;;;;4108768;28;20047;-85
2020/12/13 01:05:01;;;;;;;1.85;1.75;;;8.00;91.30;;;;;;4085676;28;20055;-85
2020/12/13 01:07:03;;;;;;;0.20;0.20;;;8.00;91.20;;;;;;4070759;29;20056;-85
2020/12/13 01:09:05;;;;;;;0.20;0.20;;;8.00;90.90;;;;;;4110347;28;20507;-85
2020/12/13 01:11:06;;;;;;;0.20;0.20;;;8.00;91.00;;;;;;4091730;29;20058;-85
2020/12/13 01:13:08;;;;;;;1.55;1.45;;;8.00;91.10;;;;;;4100315;28;20065;-85
2020/12/13 01:15:09;;;;;;;1.45;0.30;;;8.00;91.10;;;;;;4116253;28;20058;-85
2020/12/13 01:17:10;;;;;;;0.30;0.30;;;8.00;91.00;;;;;;4095534;28;20048;-85
2020/12/13 01:19:12;;;;;;;0.28;0.25;;;8.00;91.20;;;;;;4085239;28;20119;-85
2020/12/13 01:21:24;;;;;;;0.20;0.20;;;8.00;91.30;;;;;;4075987;29;20059;-85
2020/12/13 01:23:25;;;;;;;0.77;0.77;;;8.00;91.20;;;;;;4092892;28;20134;-85
2020/12/13 01:25:28;;;;;;;0.10;0.10;;;8.00;91.10;;;;;;4099659;28;20051;-86
2020/12/13 01:27:29;;;;;;;0.20;0.20;;;8.10;91.20;;;;;;4073213;29;20064;-85
2020/12/13 01:29:30;;;;;;;0.20;0.20;;;8.00;91.20;;;;;;4105481;28;20050;-85
2020/12/13 01:31:31;;;;;;;0.10;0.10;;;8.00;91.40;;;;;;4113773;28;20062;-85
2020/12/13 01:33:33;;;;;;;0.25;0.25;;;8.00;91.30;;;;;;4104892;28;20138;-85
2020/12/13 01:35:34;;;;;;;0.20;0.20;;;8.00;91.40;;;;;;4121178;28;20426;-85
2020/12/13 01:37:36;;;;;;;0.20;0.20;;;8.00;91.50;;;;;;4090588;29;20055;-85
2020/12/13 01:39:37;;;;;;;0.40;0.30;;;8.00;91.20;;;;;;4072777;29;20055;-85
2020/12/13 01:41:38;;;;;;;1.40;1.30;;;8.00;91.40;;;;;;4107372;28;20063;-86
2020/12/13 01:43:39;;;;;;;0.20;0.20;;;8.00;91.30;;;;;;4115684;28;20057;-85
2020/12/13 01:45:41;;;;;;;0.20;0.20;;;8.00;91.00;;;;;;4128077;28;20062;-85
2020/12/13 01:47:44;;;;;;;0.93;0.88;;;8.00;91.20;;;;;;4095997;28;20086;-85
2020/12/13 01:49:47;;;;;;;0.57;0.40;;;8.00;91.30;;;;;;4083711;28;20121;-85
2020/12/13 01:52:05;;;;;;;0.20;0.20;;;8.00;91.30;;;;;;4085072;28;20138;-85
2020/12/13 01:54:09;;;;;;;0.20;0.20;;;7.90;91.50;;;;;;4087780;28;20087;-86
2020/12/13 01:56:10;;;;;;;0.20;0.20;;;8.00;91.50;;;;;;4095885;28;20059;-86
2020/12/13 01:58:17;;;;;;;0.57;0.30;;;8.00;91.40;;;;;;4099424;28;20407;-85
2020/12/13 02:00:18;;;;;;;0.30;0.30;;;8.00;91.40;;;;;;4097827;28;20077;-86
2020/12/13 02:02:23;;;;;;;0.15;0.15;;;8.00;91.30;;;;;;4081253;29;20075;-85
2020/12/13 02:04:25;;;;;;;0.90;0.65;;;8.00;91.30;;;;;;4111734;28;20069;-85
2020/12/13 02:06:28;;;;;;;0.10;0.10;;;8.00;91.40;;;;;;4082653;28;20079;-85
2020/12/13 02:08:37;;;;;;;0.30;0.30;;;8.00;91.20;;;;;;4082751;29;20690;-85
2020/12/13 02:10:38;;;;;;;0.10;0.10;;;8.00;90.80;;;;;;4082932;29;20050;-85
2020/12/13 02:12:40;;;;;;;0.20;0.20;;;8.00;90.90;;;;;;4084069;29;20067;-84
2020/12/13 02:14:41;;;;;;;0.30;0.30;;;8.00;91.00;;;;;;4119628;28;20050;-85
2020/12/13 02:16:43;;;;;;;1.52;1.42;;;8.00;91.10;;;;;;4115321;28;20047;-86
2020/12/13 02:18:45;;;;;;;0.25;0.25;;;8.00;91.10;;;;;;4103614;28;20585;-85
2020/12/13 02:20:47;;;;;;;0.10;0.10;;;8.00;91.10;;;;;;4111330;28;20064;-86
2020/12/13 02:22:48;;;;;;;0.30;0.30;;;7.90;91.10;;;;;;4083961;29;20544;-85
2020/12/13 02:24:50;;;;;;;0.30;0.30;;;7.90;91.20;;;;;;4080745;29;20091;-85
2020/12/13 02:26:51;;;;;;;0.10;0.10;;;7.90;91.30;;;;;;4111766;28;20507;-85
2020/12/13 02:28:54;;;;;;;2.92;0.35;;;7.90;91.30;;;;;;4085425;29;20066;-85
2020/12/13 02:30:55;;;;;;;1.27;1.08;;;7.90;91.40;;;;;;4113137;28;20628;-86
2020/12/13 02:32:56;;;;;;;0.13;0.13;;;7.90;91.40;;;;;;4097414;28;20051;-85
2020/12/13 02:34:58;;;;;;;0.38;0.38;;;7.90;91.60;;;;;;4087990;28;20050;-86
2020/12/13 02:37:00;;;;;;;4.82;0.30;;;7.90;91.40;;;;;;4101047;28;20128;-85
2020/12/13 02:39:02;;;;;;;0.38;0.20;;;8.00;91.30;;;;;;4097295;28;20133;-85
2020/12/13 02:41:03;;;;;;;0.55;0.55;;;8.00;91.50;;;;;;4098721;28;20496;-85
2020/12/13 02:43:04;;;;;;;0.40;0.40;;;8.00;91.30;;;;;;4083898;29;20059;-85
2020/12/13 02:45:06;;;;;;;0.15;0.15;;;8.00;91.40;;;;;;4075379;29;20051;-85
2020/12/13 02:47:07;;;;;;;0.38;0.38;;;8.00;91.70;;;;;;4090152;29;20051;-86
2020/12/13 02:49:08;;;;;;;0.70;0.40;;;8.00;91.50;;;;;;4115701;28;20527;-85
2020/12/13 02:51:09;;;;;;;0.65;0.50;;;8.00;91.50;;;;;;4113355;28;20054;-85
2020/12/13 02:53:11;;;;;;;0.20;0.20;;;7.90;91.40;;;;;;4114854;28;20078;-85
2020/12/13 02:55:12;;;;;;;0.28;0.20;;;8.00;91.30;;;;;;4082958;29;20524;-85
2020/12/13 02:57:14;;;;;;;0.25;0.25;;;8.00;91.40;;;;;;4082937;29;20407;-85
2020/12/13 02:59:15;;;;;;;0.20;0.20;;;8.00;91.30;;;;;;4097688;28;20066;-86
2020/12/13 03:01:16;;;;;;;0.40;0.40;;;7.90;91.20;;;;;;4099736;28;20055;-85
2020/12/13 03:03:18;;;;;;;0.20;0.20;;;7.90;91.30;;;;;;4087934;28;20051;-87
2020/12/13 03:05:20;;;;;;;0.20;0.20;;;7.90;91.50;;;;;;4091613;28;20082;-86
2020/12/13 03:07:21;;;;;;;0.20;0.20;;;7.90;91.40;;;;;;4069139;28;20064;-85
2020/12/13 03:09:23;;;;;;;0.20;0.20;;;7.90;91.40;;;;;;4073737;29;20044;-86
2020/12/13 03:11:24;;;;;;;0.30;0.30;;;7.80;91.50;;;;;;4095687;29;20051;-85
2020/12/13 03:13:25;;;;;;;0.30;0.30;;;7.80;91.40;;;;;;4097901;28;20055;-86
2020/12/13 03:15:27;;;;;;;0.20;0.20;;;7.80;91.50;;;;;;4131281;28;20085;-86
2020/12/13 03:17:28;;;;;;;0.85;0.57;;;7.70;91.50;;;;;;4098643;28;20543;-85
2020/12/13 03:19:30;;;;;;;0.20;0.20;;;7.70;91.60;;;;;;4098054;28;20059;-84
2020/12/13 03:21:31;;;;;;;1.20;1.10;;;7.60;91.60;;;;;;4099866;28;20559;-85
2020/12/13 03:23:32;;;;;;;0.30;0.30;;;7.60;91.80;;;;;;4126811;28;20058;-86
2020/12/13 03:25:34;;;;;;;0.10;0.10;;;7.50;91.90;;;;;;4098661;28;20074;-87
2020/12/13 03:27:35;;;;;;;0.20;0.20;;;7.50;91.90;;;;;;4083704;29;20055;-86
2020/12/13 03:29:36;;;;;;;0.28;0.28;;;7.50;92.10;;;;;;4106486;28;20519;-86
2020/12/13 03:31:37;;;;;;;0.10;0.10;;;7.50;92.10;;;;;;4097570;29;20047;-85
2020/12/13 03:33:39;;;;;;;0.35;0.35;;;7.40;92.40;;;;;;4099033;28;20488;-86
2020/12/13 03:35:40;;;;;;;4.80;1.17;;;7.30;92.20;;;;;;4082847;29;20535;-86
2020/12/13 03:37:41;;;;;;;0.52;0.50;;;7.40;92.10;;;;;;4098034;28;20055;-86
2020/12/13 03:39:43;;;;;;;0.30;0.30;;;7.30;92.30;;;;;;4102733;28;20059;-86
2020/12/13 03:41:44;;;;;;;0.13;0.13;;;7.30;92.50;;;;;;4087326;29;20048;-85
2020/12/13 03:43:45;;;;;;;12.52;0.90;;;7.30;92.50;;;;;;4087728;28;20051;-86
2020/12/13 03:45:47;;;;;;;0.20;0.20;;;7.20;92.60;;;;;;4095404;28;20067;-85
2020/12/13 03:47:48;;;;;;;0.20;0.20;;;7.20;92.70;;;;;;4088308;28;20102;-85
2020/12/13 03:49:49;;;;;;;0.10;0.10;;;7.10;92.80;;;;;;4100087;28;20043;-85
2020/12/13 03:51:51;;;;;;;0.13;0.13;;;7.10;92.90;;;;;;4085644;29;20058;-85
2020/12/13 03:53:52;;;;;;;0.10;0.10;;;7.10;93.00;;;;;;4097765;28;20053;-86
2020/12/13 03:55:53;;;;;;;3.63;0.75;;;7.10;92.90;;;;;;4079810;29;20115;-85
2020/12/13 03:57:54;;;;;;;0.50;0.50;;;7.10;93.10;;;;;;4101016;28;20535;-86
2020/12/13 03:59:56;;;;;;;0.45;0.40;;;7.10;93.30;;;;;;4091361;29;20130;-85
2020/12/13 04:01:57;;;;;;;0.20;0.20;;;7.10;93.00;;;;;;4072341;29;20130;-84
2020/12/13 04:04:00;;;;;;;0.20;0.20;;;7.10;93.00;;;;;;4099959;28;20087;-85
2020/12/13 04:06:01;;;;;;;0.20;0.20;;;7.10;93.10;;;;;;4078239;29;20048;-86
2020/12/13 04:08:02;;;;;;;0.10;0.10;;;7.00;93.10;;;;;;4075891;29;20346;-85
2020/12/13 04:10:03;;;;;;;0.20;0.20;;;7.00;93.20;;;;;;4087152;29;20071;-86
2020/12/13 04:12:05;;;;;;;0.70;0.32;;;7.10;93.00;;;;;;4113699;28;20047;-86
2020/12/13 04:14:06;;;;;;;0.10;0.10;;;7.00;93.20;;;;;;4096990;29;20050;-85
2020/12/13 04:16:10;;;;;;;0.82;0.45;;;7.00;93.40;;;;;;4101574;28;20062;-85
2020/12/13 04:18:11;;;;;;;0.40;0.40;;;7.00;93.50;;;;;;4073540;29;20127;-86
2020/12/13 04:20:13;;;;;;;0.30;0.30;;;6.90;93.50;;;;;;4097769;28;20058;-86
2020/12/13 04:22:14;;;;;;;0.60;0.60;;;6.90;93.40;;;;;;4085436;29;20044;-85
2020/12/13 04:24:15;;;;;;;0.10;0.10;;;6.90;93.60;;;;;;4114650;28;20057;-85
2020/12/13 04:26:17;;;;;;;0.15;0.15;;;6.80;94.10;;;;;;4100649;28;20039;-85
2020/12/13 04:28:18;;;;;;;0.20;0.20;;;6.80;94.30;;;;;;4100616;28;20055;-85
2020/12/13 04:30:20;;;;;;;0.35;0.20;;;6.80;94.30;;;;;;4098258;28;20137;-85
2020/12/13 04:32:21;;;;;;;0.90;0.40;;;6.80;94.40;;;;;;4083434;29;20052;-85
2020/12/13 04:34:23;;;;;;;0.20;0.20;;;6.80;94.30;;;;;;4101826;28;20063;-85
2020/12/13 04:36:26;;;;;;;0.20;0.20;;;6.80;94.60;;;;;;4115299;28;20059;-86
2020/12/13 04:38:27;;;;;;;0.10;0.10;;;6.70;94.50;;;;;;4094126;29;20047;-85
2020/12/13 04:40:32;;;;;;;0.10;0.10;;;6.80;94.80;;;;;;4069195;29;20048;-85
2020/12/13 04:42:35;;;;;;;1.77;0.35;;;6.70;94.80;;;;;;4106046;28;20051;-85
2020/12/13 04:44:37;;;;;;;0.30;0.30;;;6.70;94.70;;;;;;4091707;28;20058;-86
2020/12/13 04:46:40;;;;;;;0.50;0.22;;;6.70;95.10;;;;;;4072616;29;20122;-85
2020/12/13 04:48:41;;;;;;;0.30;0.30;;;6.60;95.10;;;;;;4073564;29;20084;-85
2020/12/13 04:50:42;;;;;;;0.35;0.20;;;6.50;95.20;;;;;;4108257;28;20052;-85
2020/12/13 04:52:44;;;;;;;0.30;0.30;;;6.60;95.40;;;;;;4115879;28;20562;-85
2020/12/13 04:54:49;;;;;;;0.20;0.20;;;6.50;94.90;;;;;;4101172;28;20055;-85
2020/12/13 04:56:50;;;;;;;;;;;6.60;94.60;;;;;;4094902;28;20065;-85
2020/12/13 04:58:52;;;;;;;0.52;0.52;;;6.60;94.40;;;;;;4099379;28;20009;-85
2020/12/13 05:01:03;;;;;;;0.40;0.40;;;6.60;94.90;;;;;;4085042;29;20060;-85
2020/12/13 05:03:04;;;;;;;0.20;0.20;;;6.60;94.50;;;;;;4094175;28;20059;-85
2020/12/13 05:05:06;;;;;;;0.60;0.60;;;6.50;94.80;;;;;;4084039;29;20051;-85
2020/12/13 05:07:07;;;;;;;0.20;0.20;;;6.60;94.80;;;;;;4085898;29;20056;-86
2020/12/13 05:09:09;;;;;;;0.20;0.20;;;6.50;95.00;;;;;;4113038;28;20050;-85
2020/12/13 05:11:11;;;;;;;0.10;0.10;;;6.30;95.70;;;;;;4098757;28;20119;-85
2020/12/13 05:13:12;;;;;;;0.20;0.20;;;6.20;95.70;;;;;;4084122;29;20060;-85
2020/12/13 05:15:13;;;;;;;0.10;0.10;;;6.20;95.60;;;;;;4077312;29;20059;-85
2020/12/13 05:17:16;;;;;;;1.42;0.52;;;6.10;96.00;;;;;;4099413;28;20075;-85
2020/12/13 05:19:19;;;;;;;0.10;0.10;;;6.20;95.80;;;;;;4085081;28;20139;-84
2020/12/13 05:21:21;;;;;;;0.10;0.10;;;6.10;95.60;;;;;;4083786;29;20151;-85
2020/12/13 05:23:22;;;;;;;0.68;0.20;;;6.10;96.10;;;;;;4083869;29;20548;-85
2020/12/13 05:25:34;;;;;;;1.27;0.43;;;6.10;96.30;;;;;;4084633;29;20051;-85
2020/12/13 05:27:39;;;;;;;0.20;0.20;;;6.10;96.20;;;;;;4101290;28;20063;-85
2020/12/13 05:29:44;;;;;;;0.32;0.25;;;6.10;96.20;;;;;;4083592;28;20069;-85
2020/12/13 05:31:45;;;;;;;0.10;0.10;;;6.10;96.10;;;;;;4087317;28;20082;-85
2020/12/13 05:33:51;;;;;;;0.30;0.30;;;6.00;96.20;;;;;;4091086;29;20417;-85
2020/12/13 05:36:05;;;;;;;0.10;0.10;;;6.00;96.60;;;;;;4096014;29;20130;-85
2020/12/13 05:38:13;;;;;;;0.30;0.30;;;5.90;96.80;;;;;;4107496;28;20047;-85
2020/12/13 05:40:15;;;;;;;0.63;0.35;;;5.90;96.70;;;;;;4084802;29;20130;-85
2020/12/13 05:42:38;;;;;;;0.20;0.20;;;5.90;96.60;;;;;;4121033;28;20104;-85
2020/12/13 05:45:06;;;;;;;1.23;1.23;;;5.90;96.30;;;;;;4095433;29;20078;-85
2020/12/13 05:47:15;;;;;;;1.00;0.65;;;6.00;95.90;;;;;;4102932;28;20126;-85
2020/12/13 05:49:39;;;;;;;;;;;6.10;95.90;;;;;;4087334;28;20071;-85
2020/12/13 05:51:41;;;;;;;0.30;0.30;;;6.10;95.60;;;;;;4104010;28;20386;-85
2020/12/13 05:53:45;;;;;;;10.23;0.40;;;6.10;96.00;;;;;;4095613;28;20047;-85
2020/12/13 05:55:57;;;;;;;0.10;0.10;;;6.10;96.20;;;;;;4111270;28;20134;-85
2020/12/13 05:57:58;;;;;;;1.35;0.30;;;6.10;95.80;;;;;;4084200;29;20055;-85
2020/12/13 05:59:59;;;;;;;1.08;1.08;;;6.00;95.90;;;;;;4078040;29;20051;-85
2020/12/13 06:02:01;;;;;;;1.30;0.30;;;6.00;96.70;;;;;;4098828;29;20051;-84
2020/12/13 06:04:03;;;;;;;0.98;0.63;;;6.00;96.40;;;;;;4098411;28;20158;-85
2020/12/13 06:06:08;;;;;;;0.20;0.20;;;6.00;96.30;;;;;;4074981;29;20052;-85
2020/12/13 06:08:13;;;;;;;0.20;0.15;;;6.00;96.20;;;;;;4112306;28;20320;-85
2020/12/13 06:10:25;;;;;;;0.30;0.30;;;6.00;95.90;;;;;;4099723;28;20055;-85
2020/12/13 06:12:27;;;;;;;2.03;0.68;;;5.90;96.70;;;;;;4073683;29;20052;-85
2020/12/13 06:14:28;;;;;;;0.50;0.22;;;5.80;97.00;;;;;;4093399;28;20051;-85
2020/12/13 06:16:30;;;;;;;0.28;0.25;;;5.80;97.20;;;;;;4085960;28;20056;-85
2020/12/13 06:18:31;;;;;;;0.20;0.20;;;5.60;97.50;;;;;;4080414;29;20051;-84
2020/12/13 06:20:32;;;;;;;0.50;0.50;;;5.60;97.60;;;;;;4081476;29;20055;-85
2020/12/13 06:22:34;;;;;;;0.20;0.20;;;5.60;97.40;;;;;;4098402;28;20194;-85
2020/12/13 06:24:35;;;;;;;0.80;0.45;;;5.60;96.80;;;;;;4083096;29;20476;-85
2020/12/13 06:26:36;;;;;;;0.28;0.20;;;5.60;96.80;;;;;;4097525;29;20077;-85
2020/12/13 06:28:38;;;;;;;0.20;0.20;;;5.70;96.60;;;;;;4097268;28;25445;-85
2020/12/13 06:30:39;;;;;;;0.85;0.68;;;5.60;96.50;;;;;;4099150;29;20051;-85
2020/12/13 06:32:41;;;;;;;0.30;0.30;;;5.60;96.70;;;;;;4106254;28;20522;-85
2020/12/13 06:34:46;;;;;;;0.65;0.30;;;5.60;96.50;;;;;;4090561;28;20894;-86
2020/12/13 06:36:48;;;;;;;0.20;0.20;;;5.60;96.70;;;;;;4086914;28;20146;-84
2020/12/13 06:38:54;;;;;;;0.10;0.10;;;5.60;96.90;;;;;;4097887;28;20091;-86
2020/12/13 06:41:12;;;;;;;1.98;0.60;;;5.50;96.70;;;;;;4081252;29;20420;-86
2020/12/13 06:43:17;;;;;;;0.25;0.25;;;5.50;96.90;;;;;;4083824;29;20603;-84
2020/12/13 06:45:19;;;;;;;;;;;5.30;97.70;;;;;;4081378;29;20054;-85
2020/12/13 06:47:26;;;;;;;0.20;0.20;;;5.20;98.00;;;;;;4089081;29;20021;-85
2020/12/13 06:49:27;;;;;;;0.43;0.43;;;5.20;98.00;;;;;;4098921;28;20420;-85
2020/12/13 06:51:36;;;;;;;0.20;0.20;;;5.20;97.90;;;;;;4083342;29;20056;-85
2020/12/13 06:53:37;;;;;;;0.20;0.20;;;5.20;97.80;;;;;;4086165;29;20055;-85
2020/12/13 06:55:39;;;;;;;0.20;0.20;;;5.20;97.80;;;;;;4084894;28;20055;-84
2020/12/13 06:57:40;;;;;;;0.20;0.20;;;5.20;97.70;;;;;;4115357;28;20093;-85
2020/12/13 06:59:45;;;;;;;0.82;0.82;;;5.20;97.60;;;;;;4113893;28;20061;-90
2020/12/13 07:01:47;;;;;;;1.23;0.67;;;5.10;98.10;;;;;;4098394;28;20051;-90
2020/12/13 07:03:48;;;;;;;1.17;0.68;;;5.10;97.70;;;;;;4096229;29;20432;-89
2020/12/13 07:05:53;;;;;;;0.30;0.30;;;5.10;97.60;;;;;;4092695;29;20043;-91
2020/12/13 07:07:56;;;;;;;0.50;0.40;;;5.10;97.90;;;;;;4112392;28;20047;-89
2020/12/13 07:09:57;;;;;;;0.10;0.10;;;5.10;97.80;;;;;;4085972;29;20050;-88
2020/12/13 07:11:59;;;;;;;0.32;0.32;;;5.00;98.00;;;;;;4119585;28;20051;-90
2020/12/13 07:14:03;;;;;;;0.10;0.10;;;5.00;98.30;;;;;;4073748;28;20528;-89
2020/12/13 07:16:30;;;;;;;0.13;0.10;;;5.00;98.20;;;;;;4100134;28;20047;-89
2020/12/13 07:18:27;;;;;;;0.10;0.10;;;5.00;98.30;;;;;;4099906;28;20141;-88
2020/12/13 07:20:29;;;;;;;0.20;0.20;;;4.90;98.30;;;;;;4108989;28;20051;-90
2020/12/13 07:22:32;;;;;;;0.20;0.20;;;4.90;98.50;;;;;;4115392;28;20058;-89
2020/12/13 07:24:33;;;;;;;0.47;0.47;;;4.80;99.00;;;;;;4104541;28;20130;-90
2020/12/13 07:26:35;;;;;;;0.30;0.30;;;4.70;99.20;;;;;;4104457;28;20055;-89
2020/12/13 07:28:37;;;;;;;0.20;0.20;;;4.70;99.20;;;;;;4099986;28;20055;-85
2020/12/13 07:30:38;;;;;;;0.10;0.10;;;4.70;98.70;;;;;;4110473;28;20418;-89
2020/12/13 07:32:39;;;;;;;0.20;0.20;;;4.80;98.60;;;;;;4095278;29;20059;-85
2020/12/13 07:34:41;;;;;;;0.60;0.60;;;4.60;99.70;;;;;;4098066;28;20110;-89
2020/12/13 07:36:43;;;;;;;0.50;0.50;;;4.50;99.80;;;;;;4114058;28;20430;-88
2020/12/13 07:38:45;;;;;;;0.20;0.20;;;4.50;99.90;;;;;;4101944;28;20047;-88
2020/12/13 07:40:46;;;;;;;3.40;0.57;;;4.50;99.50;;;;;;4105839;28;20519;-89
2020/12/13 07:43:01;;;;;;;0.68;0.68;;;4.60;99.10;;;;;;4108210;28;20050;-89
2020/12/13 07:45:03;;;;;;;0.30;0.30;;;4.60;98.80;;;;;;4114830;28;20047;-89
2020/12/13 07:47:04;;;;;;;1.58;0.32;;;4.60;98.30;;;;;;4119456;28;20047;-89
2020/12/13 07:49:07;;;;;;;0.68;0.63;;;4.60;98.30;;;;;;4116389;28;20558;-90
2020/12/13 07:51:09;;;;;;;0.73;0.10;;;4.60;98.80;;;;;;4105070;28;20146;-92
2020/12/13 07:53:11;;;;;;;0.32;0.30;;;4.60;98.70;;;;;;4113966;28;20045;-90
2020/12/13 07:55:12;;;;;;;1.10;1.00;;;4.60;98.70;;;;;;4114109;28;20055;-86
2020/12/13 07:57:17;;;;;;;0.73;0.63;;;4.60;98.70;;;;;;4122391;28;20046;-87
2020/12/13 07:59:28;;;;;;;;;;;4.60;98.30;;;;;;4121550;28;20069;-89
2020/12/13 08:01:29;;;;;;;0.30;0.30;;;4.70;98.50;;;;;;4115485;28;19921;-90
2020/12/13 08:03:42;;;;;;;0.98;0.80;;;4.60;99.40;;;;;;4109440;28;20054;-89
2020/12/13 08:05:44;;;;;;;0.25;0.25;;;4.60;99.30;;;;;;4094021;28;20054;-90
2020/12/13 08:07:55;;;;;;;0.70;0.70;;;4.50;99.80;;;;;;4082171;29;20111;-82
2020/12/13 08:10:00;;;;;;;0.98;0.98;;;4.50;99.90;;;;;;4076079;29;20055;-88
2020/12/13 08:12:01;;;;;;;0.50;0.45;;;4.50;99.90;;;;;;4100211;28;20051;-89
2020/12/13 08:14:04;;;;;;;0.20;0.20;;;4.50;99.90;;;;;;4088577;28;20086;-89
2020/12/13 08:16:11;;;;;;;0.20;0.20;;;4.50;99.70;;;;;;4068243;29;20142;-88
2020/12/13 08:18:13;;;;;;;0.20;0.20;;;4.60;99.70;;;;;;4119160;28;20128;-89
2020/12/13 08:20:14;;;;;;;0.30;0.30;;;4.60;99.90;;;;;;4104516;28;20137;-88
2020/12/13 08:22:21;;;;;;;0.40;0.40;;;4.60;99.90;;;;;;4100351;28;20184;-89
2020/12/13 08:24:22;;;;;;;0.55;0.50;;;4.70;99.70;;;;;;4099072;28;20066;-90
2020/12/13 08:26:23;;;;;;;0.40;0.20;;;4.70;99.90;;;;;;4094125;28;20575;-90
2020/12/13 08:28:26;;;;;;;0.55;0.55;;;4.70;99.90;;;;;;4098173;28;20078;-90
2020/12/13 08:30:27;;;;;;;0.95;0.95;;;4.70;99.90;;;;;;4087083;28;20067;-90
2020/12/13 08:32:35;;;;;;;0.93;0.88;;;4.70;99.90;;;;;;4102489;28;20051;-88
2020/12/13 08:34:36;;;;;;;0.45;0.45;;;4.70;99.90;;;;;;4081619;29;20615;-88
2020/12/13 08:36:37;;;;;;;0.20;0.20;;;4.80;99.90;;;;;;4113982;28;20051;-88
2020/12/13 08:38:39;;;;;;;1.08;0.95;;;4.80;99.90;;;;;;4106239;28;20058;-89
2020/12/13 08:40:41;;;;;;;0.35;0.30;;;4.90;99.90;;;;;;4101695;28;20051;-90
2020/12/13 08:42:44;;;;;;;0.10;0.10;;;4.90;99.90;;;;;;4100387;28;20049;-88
2020/12/13 08:44:45;;;;;;;0.20;0.20;;;4.90;99.90;;;;;;4115776;28;20047;-93
2020/12/13 08:46:48;;;;;;;0.73;0.68;;;4.90;99.90;;;;;;4123824;28;20422;-87
2020/12/13 08:48:50;;;;;;;1.65;0.73;;;5.00;99.90;;;;;;4119034;28;20055;-89
2020/12/13 08:51:08;;;;;;;0.90;0.50;;;5.00;99.90;;;;;;4104469;28;20051;-87
2020/12/13 08:53:23;;;;;;;0.63;0.50;;;5.00;99.90;;;;;;4103851;28;20043;-90
2020/12/13 08:55:27;;;;;;;0.80;0.80;;;5.10;99.90;;;;;;4086584;28;20134;-91
2020/12/13 08:57:29;;;;;;;0.82;0.70;;;5.10;99.90;;;;;;4131325;28;20533;-90
2020/12/13 08:59:30;;;;;;;1.13;0.50;;;5.20;99.90;;;;;;4118292;28;20054;-91
2020/12/13 09:01:37;;;;;;;0.20;0.20;;;5.20;99.70;;;;;;4100739;28;20714;-90
2020/12/13 09:03:38;;;;;;;1.27;0.68;;;5.30;99.30;;;;;;4102273;28;20047;-89
2020/12/13 09:05:39;;;;;;;6.65;0.82;;;5.30;99.70;;;;;;4085184;29;20056;-89
2020/12/13 09:07:43;;;;;;;0.47;0.28;;;5.40;99.60;;;;;;4120857;28;20434;-92
2020/12/13 09:09:44;;;;;;;2.13;0.93;;;5.50;99.80;;;;;;4099341;29;20591;-92
2020/12/13 09:11:46;;;;;;;7.47;0.77;;;5.60;99.40;;;;;;4118313;28;20056;-88
2020/12/13 09:13:51;;;;;;;0.70;0.70;;;5.70;99.10;;;;;;4113247;28;20059;-91
2020/12/13 09:15:52;;;;;;;0.20;0.20;;;5.80;99.10;;;;;;4103825;28;20053;-91
2020/12/13 09:17:55;;;;;;;0.88;0.40;;;5.80;99.00;;;;;;4087566;29;20052;-91
2020/12/13 09:19:56;;;;;;;2.22;0.30;;;5.90;99.00;;;;;;4086759;29;20591;-91
2020/12/13 09:21:59;;;;;;;0.32;0.32;;;6.00;98.90;;;;;;4118390;28;20130;-92
2020/12/13 09:24:00;;;;;;;0.25;0.25;;;6.00;98.70;;;;;;4101054;28;20058;-91
2020/12/13 09:26:02;;;;;;;0.90;0.70;;;6.00;98.60;;;;;;4100746;29;20043;-92
2020/12/13 09:28:03;;;;;;;0.13;0.13;;;6.10;98.70;;;;;;4084870;29;20598;-89
2020/12/13 09:30:04;;;;;;;1.85;0.68;;;6.10;98.50;;;;;;4100302;29;20059;-92
2020/12/13 09:32:09;;;;;;;0.70;0.40;;;6.20;98.40;;;;;;4100521;28;20519;-89
2020/12/13 09:34:11;;;;;;;0.30;0.30;;;6.30;98.60;;;;;;4117009;28;20058;-92
2020/12/13 09:36:13;;;;;;;0.30;0.30;;;6.30;98.30;;;;;;4085207;29;20480;-92
2020/12/13 09:38:15;;;;;;;0.30;0.22;;;6.30;98.30;;;;;;4099611;28;20055;-90
2020/12/13 09:40:16;;;;;;;0.77;0.68;;;6.40;98.30;;;;;;4100869;29;20315;-92
2020/12/13 09:42:18;;;;;;;0.52;0.30;;;6.40;98.20;;;;;;4116522;28;20499;-92
2020/12/13 09:44:19;;;;;;;0.52;0.52;;;6.40;97.90;;;;;;4100170;28;20047;-92
2020/12/13 09:46:21;;;;;;;1.40;0.70;;;6.50;97.70;;;;;;4116443;28;20054;-91
2020/12/13 09:48:22;;;;;;;0.40;0.20;;;6.50;97.80;;;;;;4100494;28;20142;-92
2020/12/13 09:50:27;;;;;;;0.47;0.47;;;6.60;97.70;;;;;;4115894;28;20061;-91
2020/12/13 09:52:28;;;;;;;0.40;0.40;;;6.60;97.30;;;;;;4116501;28;20053;-90
2020/12/13 09:54:29;;;;;;;0.95;0.57;;;6.70;97.10;;;;;;4116489;28;20045;-92
2020/12/13 09:56:31;;;;;;;0.20;0.20;;;6.70;97.20;;;;;;4117103;28;20042;-92
2020/12/13 09:58:32;;;;;;;0.47;0.30;;;6.70;96.80;;;;;;4106287;28;20134;-91
2020/12/13 10:00:33;;;;;;;0.30;0.30;;;6.80;96.60;;;;;;4108132;28;20058;-91
2020/12/13 10:02:34;;;;;;;0.25;0.25;;;6.80;96.10;;;;;;4125740;28;20122;-92
2020/12/13 10:04:36;;;;;;;0.17;0.17;;;6.90;96.50;;;;;;4107473;28;20146;-91
2020/12/13 10:09:21;;;;;;;0.30;0.30;;;7.10;96.30;;;;;;4117013;28;20039;-92
2020/12/13 10:11:15;;;;;;;0.50;0.50;;;7.20;95.90;;;;;;4113693;28;20081;-90
2020/12/13 10:13:16;;;;;;;1.00;0.57;;;7.20;95.50;;;;;;4116567;28;20047;-89
2020/12/13 10:15:18;;;;;;;4.03;1.27;;;7.30;95.30;;;;;;4116044;28;20047;-92
2020/12/13 10:17:19;;;;;;;0.63;0.63;;;7.30;94.90;;;;;;4100169;28;20415;-86
2020/12/13 10:19:21;;;;;;;0.30;0.30;;;7.30;95.30;;;;;;4099935;28;20142;-93
2020/12/13 10:21:27;;;;;;;0.65;0.40;;;7.30;95.40;;;;;;4099860;28;20043;-92
2020/12/13 10:23:28;;;;;;;0.45;0.40;;;7.30;94.90;;;;;;4116657;28;20446;-89
2020/12/13 10:25:29;;;;;;;0.50;0.50;;;7.40;94.80;;;;;;4115494;28;20047;-92
2020/12/13 10:27:34;;;;;;;0.28;0.28;;;7.40;95.20;;;;;;4099963;28;20110;-92
2020/12/13 10:29:35;;;;;;;0.20;0.20;;;7.50;94.70;;;;;;4116897;28;20561;-92
2020/12/13 10:31:38;;;;;;;0.70;0.55;;;7.60;95.40;;;;;;4100503;28;20055;-90
2020/12/13 10:33:40;;;;;;;0.20;0.20;;;7.50;95.00;;;;;;4101955;28;20143;-92
2020/12/13 10:35:41;;;;;;;0.43;0.43;;;7.60;95.30;;;;;;4100749;28;20141;-92
2020/12/13 10:37:43;;;;;;;1.23;0.25;;;7.60;94.90;;;;;;4115851;28;20529;-88
2020/12/13 10:39:45;;;;;;;0.60;0.60;;;7.60;94.20;;;;;;4096216;29;20507;-91
2020/12/13 10:41:47;;;;;;;1.85;0.55;;;7.70;93.50;;;;;;4115092;28;20057;-91
2020/12/13 10:43:49;;;;;;;1.02;0.40;;;7.80;93.50;;;;;;4116889;28;20050;-92
2020/12/13 10:45:50;;;;;;;0.88;0.45;;;7.80;93.90;;;;;;4118378;28;20043;-92
2020/12/13 10:47:54;;;;;;;2.35;1.13;;;7.90;93.90;;;;;;4100618;28;20523;-91
2020/12/13 10:49:55;;;;;;;1.70;1.60;;;7.90;93.50;;;;;;4101100;28;20084;-90